Chaykovskiy, Russia
Current Conditions -  °F | °C
As of 1:00 AM on Monday 26 Jan 2015 (Local Time) from UWKE Reporting Station
Blowing Snow Blowing Snow  
Wind Chill: -11°   Ceiling: Unl
Heat Index:   Visibility: 6mi
Dew Point: -6°   Wind: 11mph
Humidity: 61%   Direction: 200°SSW
Pressure: 30.74"   Gusts: 18mph
Location:  56.78°N, 54.15°E
Report Text: UWKE 252000Z 20005G08MPS 9999 DRSN SKC M15/M21 Q1041 NOSIG RMKQFE763/1018 21410560
Loading
Personal Weather Stations






























Interactive Weather Map New forecast layout! Learn more

10-Day Weather Forecast

Advertisements
Track Severe Weather on mobile